sensor_id;sensor_type;location;lat;lon;timestamp;P1;durP1;ratioP1;P2;durP2;ratioP2
4106;SDS011;21906;50.812;7.132;2022-08-03T00:01:24;5.00;;;4.70;;
4106;SDS011;21906;50.812;7.132;2022-08-03T00:03:49;5.53;;;5.13;;
4106;SDS011;21906;50.812;7.132;2022-08-03T00:06:15;5.60;;;5.20;;
4106;SDS011;21906;50.812;7.132;2022-08-03T00:08:41;5.50;;;5.20;;
4106;SDS011;21906;50.812;7.132;2022-08-03T00:11:06;5.57;;;5.27;;
4106;SDS011;21906;50.812;7.132;2022-08-03T00:13:32;5.33;;;4.87;;
4106;SDS011;21906;50.812;7.132;2022-08-03T00:15:58;5.43;;;5.03;;
4106;SDS011;21906;50.812;7.132;2022-08-03T00:18:23;5.03;;;4.73;;
4106;SDS011;21906;50.812;7.132;2022-08-03T00:20:49;4.83;;;4.53;;
4106;SDS011;21906;50.812;7.132;2022-08-03T00:23:15;4.90;;;4.60;;
4106;SDS011;21906;50.812;7.132;2022-08-03T00:25:41;4.83;;;4.53;;
4106;SDS011;21906;50.812;7.132;2022-08-03T00:28:07;5.67;;;5.37;;
4106;SDS011;21906;50.812;7.132;2022-08-03T00:30:33;5.10;;;4.70;;
4106;SDS011;21906;50.812;7.132;2022-08-03T00:33:00;5.07;;;4.77;;
4106;SDS011;21906;50.812;7.132;2022-08-03T00:35:26;5.00;;;4.70;;
4106;SDS011;21906;50.812;7.132;2022-08-03T00:37:53;5.47;;;4.63;;
4106;SDS011;21906;50.812;7.132;2022-08-03T00:40:19;5.00;;;4.70;;
4106;SDS011;21906;50.812;7.132;2022-08-03T00:42:57;4.93;;;4.60;;
4106;SDS011;21906;50.812;7.132;2022-08-03T00:45:28;4.97;;;4.67;;
4106;SDS011;21906;50.812;7.132;2022-08-03T00:47:56;4.87;;;4.57;;
4106;SDS011;21906;50.812;7.132;2022-08-03T00:50:23;5.10;;;4.80;;
4106;SDS011;21906;50.812;7.132;2022-08-03T00:52:51;5.70;;;5.23;;
4106;SDS011;21906;50.812;7.132;2022-08-03T00:55:18;5.80;;;4.90;;
4106;SDS011;21906;50.812;7.132;2022-08-03T00:57:44;4.90;;;4.57;;
4106;SDS011;21906;50.812;7.132;2022-08-03T01:00:11;5.13;;;4.83;;
4106;SDS011;21906;50.812;7.132;2022-08-03T01:02:39;5.73;;;5.23;;
4106;SDS011;21906;50.812;7.132;2022-08-03T01:05:06;5.20;;;4.90;;
4106;SDS011;21906;50.812;7.132;2022-08-03T01:13:20;5.17;;;4.70;;
4106;SDS011;21906;50.812;7.132;2022-08-03T01:16:24;5.50;;;5.10;;
4106;SDS011;21906;50.812;7.132;2022-08-03T01:21:33;5.20;;;4.83;;
4106;SDS011;21906;50.812;7.132;2022-08-03T01:24:30;5.97;;;5.67;;
4106;SDS011;21906;50.812;7.132;2022-08-03T01:32:33;5.00;;;4.70;;
4106;SDS011;21906;50.812;7.132;2022-08-03T01:35:05;4.70;;;4.50;;
4106;SDS011;21906;50.812;7.132;2022-08-03T01:37:41;5.23;;;4.93;;
4106;SDS011;21906;50.812;7.132;2022-08-03T01:40:12;4.97;;;4.67;;
4106;SDS011;21906;50.812;7.132;2022-08-03T01:42:40;4.70;;;4.40;;
4106;SDS011;21906;50.812;7.132;2022-08-03T01:45:07;5.20;;;4.90;;
4106;SDS011;21906;50.812;7.132;2022-08-03T01:47:35;5.00;;;4.60;;
4106;SDS011;21906;50.812;7.132;2022-08-03T01:50:03;4.60;;;4.30;;
4106;SDS011;21906;50.812;7.132;2022-08-03T01:52:31;4.73;;;4.47;;
4106;SDS011;21906;50.812;7.132;2022-08-03T01:54:58;5.60;;;4.37;;
4106;SDS011;21906;50.812;7.132;2022-08-03T01:57:25;5.07;;;4.67;;
4106;SDS011;21906;50.812;7.132;2022-08-03T01:59:53;4.80;;;4.50;;
4106;SDS011;21906;50.812;7.132;2022-08-03T02:02:21;5.00;;;4.70;;
4106;SDS011;21906;50.812;7.132;2022-08-03T02:04:48;5.40;;;5.00;;
4106;SDS011;21906;50.812;7.132;2022-08-03T02:07:16;6.23;;;5.20;;
4106;SDS011;21906;50.812;7.132;2022-08-03T02:09:43;4.67;;;4.40;;
4106;SDS011;21906;50.812;7.132;2022-08-03T02:12:13;5.33;;;4.83;;
4106;SDS011;21906;50.812;7.132;2022-08-03T02:14:40;4.70;;;4.50;;
4106;SDS011;21906;50.812;7.132;2022-08-03T02:17:08;4.63;;;4.40;;
4106;SDS011;21906;50.812;7.132;2022-08-03T02:19:35;5.03;;;4.67;;
4106;SDS011;21906;50.812;7.132;2022-08-03T02:22:03;4.53;;;4.20;;
4106;SDS011;21906;50.812;7.132;2022-08-03T02:24:32;4.97;;;4.57;;
4106;SDS011;21906;50.812;7.132;2022-08-03T02:26:58;5.33;;;4.93;;
4106;SDS011;21906;50.812;7.132;2022-08-03T02:29:26;5.00;;;4.60;;
4106;SDS011;21906;50.812;7.132;2022-08-03T02:31:56;5.20;;;4.90;;
4106;SDS011;21906;50.812;7.132;2022-08-03T02:34:24;6.10;;;4.50;;
4106;SDS011;21906;50.812;7.132;2022-08-03T02:36:53;4.87;;;4.67;;
4106;SDS011;21906;50.812;7.132;2022-08-03T02:39:24;5.23;;;4.90;;
4106;SDS011;21906;50.812;7.132;2022-08-03T02:41:53;5.50;;;5.17;;
4106;SDS011;21906;50.812;7.132;2022-08-03T02:44:26;4.60;;;4.40;;
4106;SDS011;21906;50.812;7.132;2022-08-03T02:46:56;4.77;;;4.43;;
4106;SDS011;21906;50.812;7.132;2022-08-03T02:49:25;5.17;;;4.67;;
4106;SDS011;21906;50.812;7.132;2022-08-03T02:51:52;5.50;;;5.10;;
4106;SDS011;21906;50.812;7.132;2022-08-03T02:54:20;5.17;;;4.87;;
4106;SDS011;21906;50.812;7.132;2022-08-03T02:56:47;4.87;;;4.57;;
4106;SDS011;21906;50.812;7.132;2022-08-03T02:59:16;5.03;;;4.73;;
4106;SDS011;21906;50.812;7.132;2022-08-03T03:01:44;5.00;;;4.77;;
4106;SDS011;21906;50.812;7.132;2022-08-03T03:04:10;5.40;;;5.10;;
4106;SDS011;21906;50.812;7.132;2022-08-03T03:06:37;5.17;;;4.90;;
4106;SDS011;21906;50.812;7.132;2022-08-03T03:09:04;5.40;;;5.00;;
4106;SDS011;21906;50.812;7.132;2022-08-03T03:11:30;5.03;;;4.73;;
4106;SDS011;21906;50.812;7.132;2022-08-03T03:13:56;5.03;;;4.73;;
4106;SDS011;21906;50.812;7.132;2022-08-03T03:16:24;4.80;;;4.50;;
4106;SDS011;21906;50.812;7.132;2022-08-03T03:18:53;5.47;;;5.17;;
4106;SDS011;21906;50.812;7.132;2022-08-03T03:21:19;4.57;;;4.17;;
4106;SDS011;21906;50.812;7.132;2022-08-03T03:23:46;5.33;;;4.93;;
4106;SDS011;21906;50.812;7.132;2022-08-03T03:26:15;4.97;;;4.60;;
4106;SDS011;21906;50.812;7.132;2022-08-03T03:28:41;5.83;;;5.43;;
4106;SDS011;21906;50.812;7.132;2022-08-03T03:31:08;5.13;;;4.83;;
4106;SDS011;21906;50.812;7.132;2022-08-03T03:33:34;5.60;;;5.20;;
4106;SDS011;21906;50.812;7.132;2022-08-03T03:36:00;5.10;;;4.80;;
4106;SDS011;21906;50.812;7.132;2022-08-03T03:38:26;5.13;;;4.73;;
4106;SDS011;21906;50.812;7.132;2022-08-03T03:40:52;5.23;;;4.93;;
4106;SDS011;21906;50.812;7.132;2022-08-03T03:43:18;5.07;;;4.73;;
4106;SDS011;21906;50.812;7.132;2022-08-03T03:45:44;4.87;;;4.57;;
4106;SDS011;21906;50.812;7.132;2022-08-03T03:48:12;5.53;;;5.10;;
4106;SDS011;21906;50.812;7.132;2022-08-03T03:50:38;5.50;;;5.00;;
4106;SDS011;21906;50.812;7.132;2022-08-03T03:53:09;5.60;;;5.20;;
4106;SDS011;21906;50.812;7.132;2022-08-03T03:55:36;5.50;;;5.20;;
4106;SDS011;21906;50.812;7.132;2022-08-03T03:58:03;5.20;;;5.00;;
4106;SDS011;21906;50.812;7.132;2022-08-03T04:00:29;5.10;;;4.80;;
4106;SDS011;21906;50.812;7.132;2022-08-03T04:02:55;5.07;;;4.77;;
4106;SDS011;21906;50.812;7.132;2022-08-03T04:05:21;5.27;;;4.97;;
4106;SDS011;21906;50.812;7.132;2022-08-03T04:08:07;5.20;;;4.90;;
4106;SDS011;21906;50.812;7.132;2022-08-03T04:13:57;5.03;;;4.83;;
4106;SDS011;21906;50.812;7.132;2022-08-03T04:16:38;5.23;;;4.83;;
4106;SDS011;21906;50.812;7.132;2022-08-03T04:19:08;6.10;;;5.70;;
4106;SDS011;21906;50.812;7.132;2022-08-03T04:21:39;5.30;;;5.00;;
4106;SDS011;21906;50.812;7.132;2022-08-03T04:24:07;4.90;;;4.60;;
4106;SDS011;21906;50.812;7.132;2022-08-03T04:26:35;5.20;;;4.90;;
4106;SDS011;21906;50.812;7.132;2022-08-03T04:29:03;5.03;;;4.73;;
4106;SDS011;21906;50.812;7.132;2022-08-03T04:31:30;4.67;;;4.37;;
4106;SDS011;21906;50.812;7.132;2022-08-03T04:33:57;5.20;;;4.80;;
4106;SDS011;21906;50.812;7.132;2022-08-03T04:36:25;5.50;;;5.17;;
4106;SDS011;21906;50.812;7.132;2022-08-03T04:38:54;5.00;;;4.70;;
4106;SDS011;21906;50.812;7.132;2022-08-03T04:41:28;5.20;;;4.90;;
4106;SDS011;21906;50.812;7.132;2022-08-03T04:43:57;6.00;;;5.60;;
4106;SDS011;21906;50.812;7.132;2022-08-03T04:46:42;5.33;;;4.93;;
4106;SDS011;21906;50.812;7.132;2022-08-03T04:49:08;5.40;;;5.00;;
4106;SDS011;21906;50.812;7.132;2022-08-03T04:51:35;5.30;;;5.00;;
4106;SDS011;21906;50.812;7.132;2022-08-03T04:54:03;5.60;;;5.23;;
4106;SDS011;21906;50.812;7.132;2022-08-03T04:56:29;5.07;;;4.77;;
4106;SDS011;21906;50.812;7.132;2022-08-03T04:58:54;5.17;;;4.87;;
4106;SDS011;21906;50.812;7.132;2022-08-03T05:01:20;4.43;;;4.13;;
4106;SDS011;21906;50.812;7.132;2022-08-03T05:03:47;5.50;;;5.10;;
4106;SDS011;21906;50.812;7.132;2022-08-03T05:06:14;4.93;;;4.50;;
4106;SDS011;21906;50.812;7.132;2022-08-03T05:08:40;5.70;;;5.30;;
4106;SDS011;21906;50.812;7.132;2022-08-03T05:11:06;6.40;;;4.90;;
4106;SDS011;21906;50.812;7.132;2022-08-03T05:13:31;5.40;;;5.10;;
4106;SDS011;21906;50.812;7.132;2022-08-03T05:15:57;5.27;;;4.83;;
4106;SDS011;21906;50.812;7.132;2022-08-03T05:18:23;5.50;;;5.20;;
4106;SDS011;21906;50.812;7.132;2022-08-03T05:20:48;6.00;;;5.60;;
4106;SDS011;21906;50.812;7.132;2022-08-03T05:23:14;5.80;;;5.30;;
4106;SDS011;21906;50.812;7.132;2022-08-03T05:25:40;4.90;;;4.60;;
4106;SDS011;21906;50.812;7.132;2022-08-03T05:28:05;5.20;;;4.90;;
4106;SDS011;21906;50.812;7.132;2022-08-03T05:30:31;5.83;;;5.33;;
4106;SDS011;21906;50.812;7.132;2022-08-03T05:32:57;9.33;;;5.77;;
4106;SDS011;21906;50.812;7.132;2022-08-03T05:35:23;15.33;;;5.37;;
4106;SDS011;21906;50.812;7.132;2022-08-03T05:37:50;5.90;;;5.47;;
4106;SDS011;21906;50.812;7.132;2022-08-03T05:40:16;9.80;;;5.93;;
4106;SDS011;21906;50.812;7.132;2022-08-03T05:42:41;7.20;;;5.10;;
4106;SDS011;21906;50.812;7.132;2022-08-03T05:45:07;5.93;;;5.53;;
4106;SDS011;21906;50.812;7.132;2022-08-03T05:47:42;6.10;;;5.23;;
4106;SDS011;21906;50.812;7.132;2022-08-03T05:50:09;5.97;;;5.47;;
4106;SDS011;21906;50.812;7.132;2022-08-03T05:52:36;5.90;;;5.40;;
4106;SDS011;21906;50.812;7.132;2022-08-03T05:55:02;6.30;;;5.70;;
4106;SDS011;21906;50.812;7.132;2022-08-03T05:57:30;5.50;;;5.20;;
4106;SDS011;21906;50.812;7.132;2022-08-03T05:59:55;5.53;;;5.10;;
4106;SDS011;21906;50.812;7.132;2022-08-03T06:02:21;5.83;;;5.43;;
4106;SDS011;21906;50.812;7.132;2022-08-03T06:04:47;5.50;;;5.00;;
4106;SDS011;21906;50.812;7.132;2022-08-03T06:07:12;5.40;;;5.10;;
4106;SDS011;21906;50.812;7.132;2022-08-03T06:09:38;5.03;;;4.73;;
4106;SDS011;21906;50.812;7.132;2022-08-03T06:12:05;5.00;;;4.70;;
4106;SDS011;21906;50.812;7.132;2022-08-03T06:14:31;5.63;;;5.23;;
4106;SDS011;21906;50.812;7.132;2022-08-03T06:16:57;5.43;;;5.03;;
4106;SDS011;21906;50.812;7.132;2022-08-03T06:19:23;5.07;;;4.70;;
4106;SDS011;21906;50.812;7.132;2022-08-03T06:21:49;4.97;;;4.70;;
4106;SDS011;21906;50.812;7.132;2022-08-03T06:24:15;5.10;;;4.80;;
4106;SDS011;21906;50.812;7.132;2022-08-03T06:26:41;5.20;;;4.80;;
4106;SDS011;21906;50.812;7.132;2022-08-03T06:29:06;5.03;;;4.83;;
4106;SDS011;21906;50.812;7.132;2022-08-03T06:31:32;5.20;;;5.00;;
4106;SDS011;21906;50.812;7.132;2022-08-03T06:33:58;4.93;;;4.63;;
4106;SDS011;21906;50.812;7.132;2022-08-03T06:36:24;5.00;;;4.67;;
4106;SDS011;21906;50.812;7.132;2022-08-03T06:38:55;7.50;;;4.90;;
4106;SDS011;21906;50.812;7.132;2022-08-03T06:41:22;5.43;;;4.63;;
4106;SDS011;21906;50.812;7.132;2022-08-03T06:43:48;5.23;;;4.90;;
4106;SDS011;21906;50.812;7.132;2022-08-03T06:46:13;5.30;;;5.00;;
4106;SDS011;21906;50.812;7.132;2022-08-03T06:48:40;4.80;;;4.60;;
4106;SDS011;21906;50.812;7.132;2022-08-03T06:51:06;5.30;;;4.80;;
4106;SDS011;21906;50.812;7.132;2022-08-03T06:53:32;4.77;;;4.53;;
4106;SDS011;21906;50.812;7.132;2022-08-03T06:55:58;4.60;;;4.30;;
4106;SDS011;21906;50.812;7.132;2022-08-03T06:58:23;5.03;;;4.73;;
4106;SDS011;21906;50.812;7.132;2022-08-03T07:00:49;5.13;;;4.83;;
4106;SDS011;21906;50.812;7.132;2022-08-03T07:03:15;5.00;;;4.80;;
4106;SDS011;21906;50.812;7.132;2022-08-03T07:05:41;5.77;;;5.37;;
4106;SDS011;21906;50.812;7.132;2022-08-03T07:08:08;7.00;;;4.97;;
4106;SDS011;21906;50.812;7.132;2022-08-03T07:10:34;5.10;;;4.70;;
4106;SDS011;21906;50.812;7.132;2022-08-03T07:13:00;6.10;;;5.67;;
4106;SDS011;21906;50.812;7.132;2022-08-03T07:15:25;4.80;;;4.50;;
4106;SDS011;21906;50.812;7.132;2022-08-03T07:17:51;4.67;;;4.37;;
4106;SDS011;21906;50.812;7.132;2022-08-03T07:20:17;5.10;;;4.67;;
4106;SDS011;21906;50.812;7.132;2022-08-03T07:22:43;6.33;;;5.73;;
4106;SDS011;21906;50.812;7.132;2022-08-03T07:25:09;5.70;;;5.20;;
4106;SDS011;21906;50.812;7.132;2022-08-03T07:27:35;5.27;;;4.87;;
4106;SDS011;21906;50.812;7.132;2022-08-03T07:30:04;4.70;;;4.40;;
4106;SDS011;21906;50.812;7.132;2022-08-03T07:32:30;5.67;;;5.20;;
4106;SDS011;21906;50.812;7.132;2022-08-03T07:34:56;5.27;;;4.87;;
4106;SDS011;21906;50.812;7.132;2022-08-03T07:37:22;5.17;;;4.77;;
4106;SDS011;21906;50.812;7.132;2022-08-03T07:39:48;5.40;;;5.00;;
4106;SDS011;21906;50.812;7.132;2022-08-03T07:42:13;6.27;;;5.67;;
4106;SDS011;21906;50.812;7.132;2022-08-03T07:44:39;5.40;;;5.00;;
4106;SDS011;21906;50.812;7.132;2022-08-03T07:47:05;5.53;;;5.23;;
4106;SDS011;21906;50.812;7.132;2022-08-03T07:49:31;5.50;;;5.20;;
4106;SDS011;21906;50.812;7.132;2022-08-03T07:51:56;4.87;;;4.57;;
4106;SDS011;21906;50.812;7.132;2022-08-03T07:54:40;4.83;;;4.40;;
4106;SDS011;21906;50.812;7.132;2022-08-03T07:57:07;5.70;;;5.20;;
4106;SDS011;21906;50.812;7.132;2022-08-03T07:59:32;5.57;;;5.07;;
4106;SDS011;21906;50.812;7.132;2022-08-03T08:01:59;5.10;;;4.70;;
4106;SDS011;21906;50.812;7.132;2022-08-03T08:04:25;4.70;;;4.47;;
4106;SDS011;21906;50.812;7.132;2022-08-03T08:06:50;5.10;;;4.70;;
4106;SDS011;21906;50.812;7.132;2022-08-03T08:09:16;5.97;;;4.30;;
4106;SDS011;21906;50.812;7.132;2022-08-03T08:11:41;5.37;;;4.97;;
4106;SDS011;21906;50.812;7.132;2022-08-03T08:14:07;4.50;;;4.20;;
4106;SDS011;21906;50.812;7.132;2022-08-03T08:16:33;4.83;;;4.50;;
4106;SDS011;21906;50.812;7.132;2022-08-03T08:18:59;7.40;;;4.47;;
4106;SDS011;21906;50.812;7.132;2022-08-03T08:21:26;5.30;;;4.80;;
4106;SDS011;21906;50.812;7.132;2022-08-03T08:23:51;5.20;;;4.70;;
4106;SDS011;21906;50.812;7.132;2022-08-03T08:26:17;4.07;;;3.87;;
4106;SDS011;21906;50.812;7.132;2022-08-03T08:28:43;4.60;;;4.30;;
4106;SDS011;21906;50.812;7.132;2022-08-03T08:31:09;5.17;;;4.67;;
4106;SDS011;21906;50.812;7.132;2022-08-03T08:33:34;5.10;;;4.70;;
4106;SDS011;21906;50.812;7.132;2022-08-03T08:36:00;5.27;;;4.90;;
4106;SDS011;21906;50.812;7.132;2022-08-03T08:38:26;4.73;;;4.50;;
4106;SDS011;21906;50.812;7.132;2022-08-03T08:40:53;5.03;;;4.40;;
4106;SDS011;21906;50.812;7.132;2022-08-03T08:43:20;4.57;;;4.17;;
4106;SDS011;21906;50.812;7.132;2022-08-03T08:45:49;4.20;;;3.90;;
4106;SDS011;21906;50.812;7.132;2022-08-03T08:48:22;5.03;;;4.63;;
4106;SDS011;21906;50.812;7.132;2022-08-03T08:50:54;5.00;;;4.60;;
4106;SDS011;21906;50.812;7.132;2022-08-03T08:53:21;4.07;;;3.87;;
4106;SDS011;21906;50.812;7.132;2022-08-03T08:55:50;3.50;;;3.30;;
4106;SDS011;21906;50.812;7.132;2022-08-03T08:58:16;3.70;;;3.50;;
4106;SDS011;21906;50.812;7.132;2022-08-03T09:00:45;3.40;;;3.20;;
4106;SDS011;21906;50.812;7.132;2022-08-03T09:03:12;3.50;;;3.20;;
4106;SDS011;21906;50.812;7.132;2022-08-03T09:05:38;2.50;;;2.30;;
4106;SDS011;21906;50.812;7.132;2022-08-03T09:08:07;3.10;;;2.90;;
4106;SDS011;21906;50.812;7.132;2022-08-03T09:10:33;3.50;;;2.60;;
4106;SDS011;21906;50.812;7.132;2022-08-03T09:12:59;2.80;;;2.60;;
4106;SDS011;21906;50.812;7.132;2022-08-03T09:15:26;3.40;;;3.20;;
4106;SDS011;21906;50.812;7.132;2022-08-03T09:17:57;3.73;;;3.43;;
4106;SDS011;21906;50.812;7.132;2022-08-03T09:20:25;3.40;;;3.20;;
4106;SDS011;21906;50.812;7.132;2022-08-03T09:23:05;3.30;;;3.10;;
4106;SDS011;21906;50.812;7.132;2022-08-03T09:25:39;3.10;;;2.80;;
4106;SDS011;21906;50.812;7.132;2022-08-03T09:28:10;4.00;;;3.00;;
4106;SDS011;21906;50.812;7.132;2022-08-03T09:30:38;3.60;;;3.20;;
4106;SDS011;21906;50.812;7.132;2022-08-03T09:33:10;3.53;;;3.20;;
4106;SDS011;21906;50.812;7.132;2022-08-03T09:35:46;3.43;;;3.23;;
4106;SDS011;21906;50.812;7.132;2022-08-03T09:40:42;4.10;;;3.83;;
4106;SDS011;21906;50.812;7.132;2022-08-03T09:43:08;2.80;;;2.60;;
4106;SDS011;21906;50.812;7.132;2022-08-03T09:45:35;4.40;;;3.30;;
4106;SDS011;21906;50.812;7.132;2022-08-03T09:48:21;3.50;;;3.20;;
4106;SDS011;21906;50.812;7.132;2022-08-03T09:50:55;3.47;;;3.17;;
4106;SDS011;21906;50.812;7.132;2022-08-03T09:53:23;4.60;;;3.33;;
4106;SDS011;21906;50.812;7.132;2022-08-03T09:55:52;3.20;;;2.90;;
4106;SDS011;21906;50.812;7.132;2022-08-03T09:58:20;5.00;;;3.67;;
4106;SDS011;21906;50.812;7.132;2022-08-03T10:00:54;4.03;;;2.87;;
4106;SDS011;21906;50.812;7.132;2022-08-03T10:03:25;3.70;;;3.03;;
4106;SDS011;21906;50.812;7.132;2022-08-03T10:05:52;2.70;;;2.37;;
4106;SDS011;21906;50.812;7.132;2022-08-03T10:08:19;3.00;;;2.80;;
4106;SDS011;21906;50.812;7.132;2022-08-03T10:10:46;3.20;;;2.90;;
4106;SDS011;21906;50.812;7.132;2022-08-03T10:13:14;2.70;;;2.50;;
4106;SDS011;21906;50.812;7.132;2022-08-03T10:15:41;2.60;;;2.40;;
4106;SDS011;21906;50.812;7.132;2022-08-03T10:18:07;5.70;;;3.20;;
4106;SDS011;21906;50.812;7.132;2022-08-03T10:20:42;2.60;;;2.50;;
4106;SDS011;21906;50.812;7.132;2022-08-03T10:23:10;3.00;;;2.80;;
4106;SDS011;21906;50.812;7.132;2022-08-03T10:25:38;4.67;;;3.10;;
4106;SDS011;21906;50.812;7.132;2022-08-03T10:28:05;5.00;;;3.20;;
4106;SDS011;21906;50.812;7.132;2022-08-03T10:30:36;3.20;;;3.00;;
4106;SDS011;21906;50.812;7.132;2022-08-03T10:33:07;3.27;;;3.00;;
4106;SDS011;21906;50.812;7.132;2022-08-03T10:35:41;3.53;;;3.00;;
4106;SDS011;21906;50.812;7.132;2022-08-03T10:38:11;6.50;;;3.23;;
4106;SDS011;21906;50.812;7.132;2022-08-03T10:40:43;3.73;;;2.80;;
4106;SDS011;21906;50.812;7.132;2022-08-03T10:43:17;3.03;;;2.83;;
4106;SDS011;21906;50.812;7.132;2022-08-03T10:45:50;3.27;;;3.03;;
4106;SDS011;21906;50.812;7.132;2022-08-03T10:48:16;3.80;;;3.00;;
4106;SDS011;21906;50.812;7.132;2022-08-03T10:50:43;3.00;;;2.80;;
4106;SDS011;21906;50.812;7.132;2022-08-03T10:53:09;3.07;;;2.80;;
4106;SDS011;21906;50.812;7.132;2022-08-03T11:01:04;6.20;;;3.47;;
4106;SDS011;21906;50.812;7.132;2022-08-03T11:03:32;3.07;;;2.87;;
4106;SDS011;21906;50.812;7.132;2022-08-03T11:06:14;3.30;;;3.10;;
4106;SDS011;21906;50.812;7.132;2022-08-03T11:08:45;3.40;;;3.20;;
4106;SDS011;21906;50.812;7.132;2022-08-03T11:13:57;3.20;;;2.90;;
4106;SDS011;21906;50.812;7.132;2022-08-03T11:16:34;3.73;;;3.00;;
4106;SDS011;21906;50.812;7.132;2022-08-03T11:19:10;3.23;;;3.03;;
4106;SDS011;21906;50.812;7.132;2022-08-03T11:35:57;3.80;;;3.23;;
4106;SDS011;21906;50.812;7.132;2022-08-03T11:46:00;4.80;;;3.10;;
4106;SDS011;21906;50.812;7.132;2022-08-03T11:48:48;3.10;;;2.90;;
4106;SDS011;21906;50.812;7.132;2022-08-03T11:51:26;3.83;;;3.40;;
4106;SDS011;21906;50.812;7.132;2022-08-03T11:56:24;3.27;;;2.90;;
4106;SDS011;21906;50.812;7.132;2022-08-03T11:58:51;3.23;;;2.93;;
4106;SDS011;21906;50.812;7.132;2022-08-03T12:01:19;5.10;;;4.80;;
4106;SDS011;21906;50.812;7.132;2022-08-03T12:03:45;5.60;;;3.10;;
4106;SDS011;21906;50.812;7.132;2022-08-03T12:06:12;3.90;;;3.70;;
4106;SDS011;21906;50.812;7.132;2022-08-03T12:08:40;3.47;;;3.17;;
4106;SDS011;21906;50.812;7.132;2022-08-03T12:11:07;3.37;;;3.17;;
4106;SDS011;21906;50.812;7.132;2022-08-03T12:13:52;3.33;;;3.03;;
4106;SDS011;21906;50.812;7.132;2022-08-03T12:16:20;4.10;;;2.93;;
4106;SDS011;21906;50.812;7.132;2022-08-03T12:18:57;5.27;;;3.03;;
4106;SDS011;21906;50.812;7.132;2022-08-03T12:21:24;2.87;;;2.70;;
4106;SDS011;21906;50.812;7.132;2022-08-03T12:23:54;3.33;;;3.13;;
4106;SDS011;21906;50.812;7.132;2022-08-03T12:26:25;3.07;;;2.87;;
4106;SDS011;21906;50.812;7.132;2022-08-03T12:28:51;3.40;;;3.20;;
4106;SDS011;21906;50.812;7.132;2022-08-03T12:31:17;3.13;;;2.90;;
4106;SDS011;21906;50.812;7.132;2022-08-03T12:34:02;3.77;;;3.37;;
4106;SDS011;21906;50.812;7.132;2022-08-03T12:36:31;4.07;;;3.17;;
4106;SDS011;21906;50.812;7.132;2022-08-03T12:39:02;2.70;;;2.43;;
4106;SDS011;21906;50.812;7.132;2022-08-03T12:41:34;2.87;;;2.67;;
4106;SDS011;21906;50.812;7.132;2022-08-03T12:44:01;2.57;;;2.37;;
4106;SDS011;21906;50.812;7.132;2022-08-03T12:46:33;2.87;;;2.67;;
4106;SDS011;21906;50.812;7.132;2022-08-03T12:54:18;2.43;;;2.23;;
4106;SDS011;21906;50.812;7.132;2022-08-03T12:56:58;2.50;;;2.30;;
4106;SDS011;21906;50.812;7.132;2022-08-03T12:59:26;2.77;;;2.67;;
4106;SDS011;21906;50.812;7.132;2022-08-03T13:01:56;2.93;;;2.80;;
4106;SDS011;21906;50.812;7.132;2022-08-03T13:04:29;6.23;;;2.80;;
4106;SDS011;21906;50.812;7.132;2022-08-03T13:07:00;3.30;;;3.10;;
4106;SDS011;21906;50.812;7.132;2022-08-03T13:09:27;2.30;;;2.20;;
4106;SDS011;21906;50.812;7.132;2022-08-03T13:12:15;3.77;;;2.70;;
4106;SDS011;21906;50.812;7.132;2022-08-03T13:14:46;5.20;;;2.80;;
4106;SDS011;21906;50.812;7.132;2022-08-03T13:17:13;3.17;;;2.60;;
4106;SDS011;21906;50.812;7.132;2022-08-03T13:19:42;2.80;;;2.60;;
4106;SDS011;21906;50.812;7.132;2022-08-03T13:22:10;3.00;;;2.70;;
4106;SDS011;21906;50.812;7.132;2022-08-03T13:24:39;2.90;;;2.50;;
4106;SDS011;21906;50.812;7.132;2022-08-03T13:27:06;4.30;;;2.87;;
4106;SDS011;21906;50.812;7.132;2022-08-03T13:29:32;3.20;;;2.90;;
4106;SDS011;21906;50.812;7.132;2022-08-03T13:31:59;3.13;;;2.90;;
4106;SDS011;21906;50.812;7.132;2022-08-03T13:34:29;3.47;;;2.83;;
4106;SDS011;21906;50.812;7.132;2022-08-03T13:36:54;3.40;;;3.10;;
4106;SDS011;21906;50.812;7.132;2022-08-03T13:39:20;3.90;;;3.60;;
4106;SDS011;21906;50.812;7.132;2022-08-03T13:41:46;5.10;;;3.87;;
4106;SDS011;21906;50.812;7.132;2022-08-03T13:44:12;3.20;;;2.93;;
4106;SDS011;21906;50.812;7.132;2022-08-03T13:46:38;4.83;;;3.00;;
4106;SDS011;21906;50.812;7.132;2022-08-03T13:49:04;2.93;;;2.73;;
4106;SDS011;21906;50.812;7.132;2022-08-03T13:51:31;3.10;;;2.80;;
4106;SDS011;21906;50.812;7.132;2022-08-03T13:53:57;5.27;;;3.80;;
4106;SDS011;21906;50.812;7.132;2022-08-03T13:56:24;5.93;;;3.43;;
4106;SDS011;21906;50.812;7.132;2022-08-03T13:58:50;3.23;;;2.97;;
4106;SDS011;21906;50.812;7.132;2022-08-03T14:01:16;3.80;;;3.10;;
4106;SDS011;21906;50.812;7.132;2022-08-03T14:03:42;2.83;;;2.63;;
4106;SDS011;21906;50.812;7.132;2022-08-03T14:06:08;3.57;;;3.37;;
4106;SDS011;21906;50.812;7.132;2022-08-03T14:08:33;3.40;;;3.10;;
4106;SDS011;21906;50.812;7.132;2022-08-03T14:10:59;3.73;;;3.00;;
4106;SDS011;21906;50.812;7.132;2022-08-03T14:13:25;5.30;;;3.53;;
4106;SDS011;21906;50.812;7.132;2022-08-03T14:15:51;2.90;;;2.70;;
4106;SDS011;21906;50.812;7.132;2022-08-03T14:18:20;2.70;;;2.50;;
4106;SDS011;21906;50.812;7.132;2022-08-03T14:20:46;2.60;;;2.50;;
4106;SDS011;21906;50.812;7.132;2022-08-03T14:23:12;4.43;;;3.37;;
4106;SDS011;21906;50.812;7.132;2022-08-03T14:25:38;3.60;;;3.40;;
4106;SDS011;21906;50.812;7.132;2022-08-03T14:28:05;3.80;;;3.50;;
4106;SDS011;21906;50.812;7.132;2022-08-03T14:30:31;6.50;;;6.00;;
4106;SDS011;21906;50.812;7.132;2022-08-03T14:32:58;3.90;;;3.60;;
4106;SDS011;21906;50.812;7.132;2022-08-03T14:35:23;3.43;;;3.13;;
4106;SDS011;21906;50.812;7.132;2022-08-03T14:37:50;3.70;;;3.50;;
4106;SDS011;21906;50.812;7.132;2022-08-03T14:40:16;3.20;;;2.97;;
4106;SDS011;21906;50.812;7.132;2022-08-03T14:42:42;2.80;;;2.70;;
4106;SDS011;21906;50.812;7.132;2022-08-03T14:45:08;5.60;;;3.20;;
4106;SDS011;21906;50.812;7.132;2022-08-03T14:47:34;3.10;;;2.80;;
4106;SDS011;21906;50.812;7.132;2022-08-03T14:50:00;3.80;;;3.50;;
4106;SDS011;21906;50.812;7.132;2022-08-03T14:52:28;3.60;;;3.00;;
4106;SDS011;21906;50.812;7.132;2022-08-03T14:54:55;2.63;;;2.40;;
4106;SDS011;21906;50.812;7.132;2022-08-03T14:57:20;2.60;;;2.40;;
4106;SDS011;21906;50.812;7.132;2022-08-03T14:59:46;3.57;;;3.13;;
4106;SDS011;21906;50.812;7.132;2022-08-03T15:02:12;6.23;;;2.60;;
4106;SDS011;21906;50.812;7.132;2022-08-03T15:04:37;3.17;;;2.97;;
4106;SDS011;21906;50.812;7.132;2022-08-03T15:07:04;2.97;;;2.77;;
4106;SDS011;21906;50.812;7.132;2022-08-03T15:09:29;3.03;;;2.73;;
4106;SDS011;21906;50.812;7.132;2022-08-03T15:11:55;3.20;;;2.93;;
4106;SDS011;21906;50.812;7.132;2022-08-03T15:14:21;2.67;;;2.47;;
4106;SDS011;21906;50.812;7.132;2022-08-03T15:16:47;3.10;;;2.90;;
4106;SDS011;21906;50.812;7.132;2022-08-03T15:19:13;2.93;;;2.83;;
4106;SDS011;21906;50.812;7.132;2022-08-03T15:21:38;3.87;;;3.50;;
4106;SDS011;21906;50.812;7.132;2022-08-03T15:24:04;3.50;;;3.27;;
4106;SDS011;21906;50.812;7.132;2022-08-03T15:26:30;3.27;;;3.00;;
4106;SDS011;21906;50.812;7.132;2022-08-03T15:28:56;3.00;;;2.90;;
4106;SDS011;21906;50.812;7.132;2022-08-03T15:31:22;2.93;;;2.73;;
4106;SDS011;21906;50.812;7.132;2022-08-03T15:33:49;3.30;;;3.10;;
4106;SDS011;21906;50.812;7.132;2022-08-03T15:36:16;4.43;;;3.00;;
4106;SDS011;21906;50.812;7.132;2022-08-03T15:38:43;4.00;;;3.70;;
4106;SDS011;21906;50.812;7.132;2022-08-03T15:41:09;2.80;;;2.60;;
4106;SDS011;21906;50.812;7.132;2022-08-03T15:43:35;3.23;;;3.03;;
4106;SDS011;21906;50.812;7.132;2022-08-03T15:46:01;4.70;;;3.20;;
4106;SDS011;21906;50.812;7.132;2022-08-03T15:48:27;3.57;;;3.37;;
4106;SDS011;21906;50.812;7.132;2022-08-03T15:50:52;4.03;;;3.50;;
4106;SDS011;21906;50.812;7.132;2022-08-03T15:53:19;3.90;;;3.60;;
4106;SDS011;21906;50.812;7.132;2022-08-03T15:55:44;3.50;;;3.30;;
4106;SDS011;21906;50.812;7.132;2022-08-03T15:58:10;3.80;;;3.50;;
4106;SDS011;21906;50.812;7.132;2022-08-03T16:00:36;3.50;;;3.20;;
4106;SDS011;21906;50.812;7.132;2022-08-03T16:03:03;3.50;;;3.30;;